sensor_id;sensor_type;location;lat;lon;timestamp;P1;durP1;ratioP1;P2;durP2;ratioP2
3916;SDS011;1973;50.518;7.318;2023-04-28T00:02:23;8.43;;;3.27;;
3916;SDS011;1973;50.518;7.318;2023-04-28T00:04:49;8.03;;;3.97;;
3916;SDS011;1973;50.518;7.318;2023-04-28T00:07:16;5.97;;;3.43;;
3916;SDS011;1973;50.518;7.318;2023-04-28T00:09:43;4.93;;;3.20;;
3916;SDS011;1973;50.518;7.318;2023-04-28T00:12:09;4.60;;;3.10;;
3916;SDS011;1973;50.518;7.318;2023-04-28T00:14:36;3.53;;;3.07;;
3916;SDS011;1973;50.518;7.318;2023-04-28T00:17:02;5.23;;;3.80;;
3916;SDS011;1973;50.518;7.318;2023-04-28T00:19:29;3.67;;;3.37;;
3916;SDS011;1973;50.518;7.318;2023-04-28T00:21:56;5.40;;;3.40;;
3916;SDS011;1973;50.518;7.318;2023-04-28T00:24:22;6.13;;;4.00;;
3916;SDS011;1973;50.518;7.318;2023-04-28T00:26:49;4.83;;;3.60;;
3916;SDS011;1973;50.518;7.318;2023-04-28T00:29:15;5.07;;;3.30;;
3916;SDS011;1973;50.518;7.318;2023-04-28T00:31:43;8.40;;;4.27;;
3916;SDS011;1973;50.518;7.318;2023-04-28T00:34:09;4.50;;;3.70;;
3916;SDS011;1973;50.518;7.318;2023-04-28T00:36:39;9.17;;;4.73;;
3916;SDS011;1973;50.518;7.318;2023-04-28T00:39:06;6.60;;;3.77;;
3916;SDS011;1973;50.518;7.318;2023-04-28T00:41:33;6.00;;;3.87;;
3916;SDS011;1973;50.518;7.318;2023-04-28T00:44:00;7.17;;;3.93;;
3916;SDS011;1973;50.518;7.318;2023-04-28T00:46:28;8.60;;;4.60;;
3916;SDS011;1973;50.518;7.318;2023-04-28T00:48:55;5.50;;;3.77;;
3916;SDS011;1973;50.518;7.318;2023-04-28T00:51:23;5.60;;;3.80;;
3916;SDS011;1973;50.518;7.318;2023-04-28T00:53:49;5.57;;;3.93;;
3916;SDS011;1973;50.518;7.318;2023-04-28T00:56:16;7.00;;;4.07;;
3916;SDS011;1973;50.518;7.318;2023-04-28T00:58:43;7.10;;;5.20;;
3916;SDS011;1973;50.518;7.318;2023-04-28T01:01:09;6.17;;;4.40;;
3916;SDS011;1973;50.518;7.318;2023-04-28T01:03:36;5.40;;;3.90;;
3916;SDS011;1973;50.518;7.318;2023-04-28T01:06:06;6.90;;;4.17;;
3916;SDS011;1973;50.518;7.318;2023-04-28T01:08:34;4.73;;;4.33;;
3916;SDS011;1973;50.518;7.318;2023-04-28T01:11:01;4.17;;;3.77;;
3916;SDS011;1973;50.518;7.318;2023-04-28T01:13:28;5.00;;;4.50;;
3916;SDS011;1973;50.518;7.318;2023-04-28T01:15:54;7.00;;;3.97;;
3916;SDS011;1973;50.518;7.318;2023-04-28T01:18:21;5.23;;;4.70;;
3916;SDS011;1973;50.518;7.318;2023-04-28T01:20:49;4.80;;;3.97;;
3916;SDS011;1973;50.518;7.318;2023-04-28T01:23:15;5.77;;;4.70;;
3916;SDS011;1973;50.518;7.318;2023-04-28T01:25:42;9.70;;;4.80;;
3916;SDS011;1973;50.518;7.318;2023-04-28T01:28:09;6.87;;;4.40;;
3916;SDS011;1973;50.518;7.318;2023-04-28T01:30:36;5.20;;;4.70;;
3916;SDS011;1973;50.518;7.318;2023-04-28T01:33:03;6.20;;;4.80;;
3916;SDS011;1973;50.518;7.318;2023-04-28T01:35:29;8.10;;;4.87;;
3916;SDS011;1973;50.518;7.318;2023-04-28T01:37:56;6.00;;;4.77;;
3916;SDS011;1973;50.518;7.318;2023-04-28T01:40:23;5.33;;;4.37;;
3916;SDS011;1973;50.518;7.318;2023-04-28T01:42:49;5.23;;;4.20;;
3916;SDS011;1973;50.518;7.318;2023-04-28T01:45:16;4.87;;;4.40;;
3916;SDS011;1973;50.518;7.318;2023-04-28T01:47:42;7.37;;;4.60;;
3916;SDS011;1973;50.518;7.318;2023-04-28T01:50:09;7.33;;;4.70;;
3916;SDS011;1973;50.518;7.318;2023-04-28T01:52:36;5.43;;;4.63;;
3916;SDS011;1973;50.518;7.318;2023-04-28T01:55:03;7.47;;;4.93;;
3916;SDS011;1973;50.518;7.318;2023-04-28T01:57:29;5.03;;;4.60;;
3916;SDS011;1973;50.518;7.318;2023-04-28T01:59:56;5.70;;;4.47;;
3916;SDS011;1973;50.518;7.318;2023-04-28T02:02:24;6.40;;;4.50;;
3916;SDS011;1973;50.518;7.318;2023-04-28T02:04:50;5.70;;;4.97;;
3916;SDS011;1973;50.518;7.318;2023-04-28T02:07:17;5.10;;;4.60;;
3916;SDS011;1973;50.518;7.318;2023-04-28T02:09:43;6.00;;;4.73;;
3916;SDS011;1973;50.518;7.318;2023-04-28T02:12:10;7.87;;;4.47;;
3916;SDS011;1973;50.518;7.318;2023-04-28T02:14:36;4.90;;;4.40;;
3916;SDS011;1973;50.518;7.318;2023-04-28T02:17:03;5.83;;;4.43;;
3916;SDS011;1973;50.518;7.318;2023-04-28T02:19:30;5.00;;;3.73;;
3916;SDS011;1973;50.518;7.318;2023-04-28T02:21:57;4.97;;;4.40;;
3916;SDS011;1973;50.518;7.318;2023-04-28T02:24:23;7.80;;;4.93;;
3916;SDS011;1973;50.518;7.318;2023-04-28T02:26:49;6.70;;;4.37;;
3916;SDS011;1973;50.518;7.318;2023-04-28T02:29:16;6.00;;;4.80;;
3916;SDS011;1973;50.518;7.318;2023-04-28T02:31:42;5.17;;;4.67;;
3916;SDS011;1973;50.518;7.318;2023-04-28T02:34:09;4.87;;;4.33;;
3916;SDS011;1973;50.518;7.318;2023-04-28T02:36:35;4.50;;;3.97;;
3916;SDS011;1973;50.518;7.318;2023-04-28T02:39:02;9.13;;;4.60;;
3916;SDS011;1973;50.518;7.318;2023-04-28T02:41:29;4.73;;;4.07;;
3916;SDS011;1973;50.518;7.318;2023-04-28T02:43:56;4.90;;;3.80;;
3916;SDS011;1973;50.518;7.318;2023-04-28T02:46:22;7.70;;;4.53;;
3916;SDS011;1973;50.518;7.318;2023-04-28T02:48:49;5.50;;;4.60;;
3916;SDS011;1973;50.518;7.318;2023-04-28T02:51:15;5.13;;;4.63;;
3916;SDS011;1973;50.518;7.318;2023-04-28T02:53:42;7.57;;;4.60;;
3916;SDS011;1973;50.518;7.318;2023-04-28T02:56:08;7.60;;;4.83;;
3916;SDS011;1973;50.518;7.318;2023-04-28T02:58:34;5.00;;;4.60;;
3916;SDS011;1973;50.518;7.318;2023-04-28T03:01:01;4.93;;;4.37;;
3916;SDS011;1973;50.518;7.318;2023-04-28T03:03:28;5.90;;;4.90;;
3916;SDS011;1973;50.518;7.318;2023-04-28T03:05:54;6.10;;;5.00;;
3916;SDS011;1973;50.518;7.318;2023-04-28T03:08:22;6.70;;;5.10;;
3916;SDS011;1973;50.518;7.318;2023-04-28T03:10:48;6.10;;;4.80;;
3916;SDS011;1973;50.518;7.318;2023-04-28T03:13:15;3.80;;;3.40;;
3916;SDS011;1973;50.518;7.318;2023-04-28T03:15:41;5.80;;;4.30;;
3916;SDS011;1973;50.518;7.318;2023-04-28T03:18:08;7.23;;;3.90;;
3916;SDS011;1973;50.518;7.318;2023-04-28T03:20:34;5.20;;;4.23;;
3916;SDS011;1973;50.518;7.318;2023-04-28T03:23:01;5.53;;;4.20;;
3916;SDS011;1973;50.518;7.318;2023-04-28T03:25:28;4.37;;;3.97;;
3916;SDS011;1973;50.518;7.318;2023-04-28T03:27:55;5.80;;;4.57;;
3916;SDS011;1973;50.518;7.318;2023-04-28T03:30:21;5.30;;;4.00;;
3916;SDS011;1973;50.518;7.318;2023-04-28T03:32:48;6.33;;;4.00;;
3916;SDS011;1973;50.518;7.318;2023-04-28T03:35:14;4.80;;;4.27;;
3916;SDS011;1973;50.518;7.318;2023-04-28T03:37:41;6.40;;;4.13;;
3916;SDS011;1973;50.518;7.318;2023-04-28T03:40:07;5.70;;;4.27;;
3916;SDS011;1973;50.518;7.318;2023-04-28T03:42:34;7.50;;;4.50;;
3916;SDS011;1973;50.518;7.318;2023-04-28T03:45:00;6.07;;;4.17;;
3916;SDS011;1973;50.518;7.318;2023-04-28T03:47:27;6.60;;;4.60;;
3916;SDS011;1973;50.518;7.318;2023-04-28T03:49:53;7.83;;;4.90;;
3916;SDS011;1973;50.518;7.318;2023-04-28T03:52:20;5.27;;;4.03;;
3916;SDS011;1973;50.518;7.318;2023-04-28T03:54:46;7.50;;;4.70;;
3916;SDS011;1973;50.518;7.318;2023-04-28T03:57:13;6.47;;;4.17;;
3916;SDS011;1973;50.518;7.318;2023-04-28T03:59:39;6.73;;;4.60;;
3916;SDS011;1973;50.518;7.318;2023-04-28T04:02:06;5.57;;;4.20;;
3916;SDS011;1973;50.518;7.318;2023-04-28T04:04:32;6.40;;;4.70;;
3916;SDS011;1973;50.518;7.318;2023-04-28T04:06:59;6.80;;;4.73;;
3916;SDS011;1973;50.518;7.318;2023-04-28T04:09:26;6.00;;;4.40;;
3916;SDS011;1973;50.518;7.318;2023-04-28T04:11:52;6.37;;;4.50;;
3916;SDS011;1973;50.518;7.318;2023-04-28T04:14:19;6.60;;;4.47;;
3916;SDS011;1973;50.518;7.318;2023-04-28T04:16:45;6.90;;;4.40;;
3916;SDS011;1973;50.518;7.318;2023-04-28T04:19:13;6.40;;;5.00;;
3916;SDS011;1973;50.518;7.318;2023-04-28T04:21:39;5.30;;;4.70;;
3916;SDS011;1973;50.518;7.318;2023-04-28T04:24:06;6.40;;;5.07;;
3916;SDS011;1973;50.518;7.318;2023-04-28T04:26:33;7.33;;;4.70;;
3916;SDS011;1973;50.518;7.318;2023-04-28T04:28:59;6.90;;;4.97;;
3916;SDS011;1973;50.518;7.318;2023-04-28T04:31:26;5.27;;;4.30;;
3916;SDS011;1973;50.518;7.318;2023-04-28T04:33:53;6.07;;;4.53;;
3916;SDS011;1973;50.518;7.318;2023-04-28T04:36:19;6.10;;;4.83;;
3916;SDS011;1973;50.518;7.318;2023-04-28T04:38:46;7.63;;;4.67;;
3916;SDS011;1973;50.518;7.318;2023-04-28T04:41:12;7.70;;;4.93;;
3916;SDS011;1973;50.518;7.318;2023-04-28T04:43:39;5.87;;;5.27;;
3916;SDS011;1973;50.518;7.318;2023-04-28T04:46:06;6.47;;;5.47;;
3916;SDS011;1973;50.518;7.318;2023-04-28T04:48:32;7.73;;;5.40;;
3916;SDS011;1973;50.518;7.318;2023-04-28T04:50:59;7.30;;;5.73;;
3916;SDS011;1973;50.518;7.318;2023-04-28T04:53:26;9.80;;;6.57;;
3916;SDS011;1973;50.518;7.318;2023-04-28T04:55:52;12.90;;;6.50;;
3916;SDS011;1973;50.518;7.318;2023-04-28T04:58:19;8.47;;;6.57;;
3916;SDS011;1973;50.518;7.318;2023-04-28T05:00:46;5.70;;;5.10;;
3916;SDS011;1973;50.518;7.318;2023-04-28T05:03:12;7.33;;;5.60;;
3916;SDS011;1973;50.518;7.318;2023-04-28T05:05:39;6.97;;;5.50;;
3916;SDS011;1973;50.518;7.318;2023-04-28T05:08:06;7.20;;;5.57;;
3916;SDS011;1973;50.518;7.318;2023-04-28T05:10:32;9.70;;;5.43;;
3916;SDS011;1973;50.518;7.318;2023-04-28T05:12:59;7.27;;;6.20;;
3916;SDS011;1973;50.518;7.318;2023-04-28T05:15:25;8.33;;;6.10;;
3916;SDS011;1973;50.518;7.318;2023-04-28T05:17:52;7.40;;;5.50;;
3916;SDS011;1973;50.518;7.318;2023-04-28T05:20:19;10.70;;;6.07;;
3916;SDS011;1973;50.518;7.318;2023-04-28T05:22:45;9.53;;;6.13;;
3916;SDS011;1973;50.518;7.318;2023-04-28T05:25:12;6.40;;;5.80;;
3916;SDS011;1973;50.518;7.318;2023-04-28T05:27:38;6.67;;;5.97;;
3916;SDS011;1973;50.518;7.318;2023-04-28T05:30:06;6.40;;;5.70;;
3916;SDS011;1973;50.518;7.318;2023-04-28T05:32:34;6.10;;;5.50;;
3916;SDS011;1973;50.518;7.318;2023-04-28T05:35:01;10.83;;;6.20;;
3916;SDS011;1973;50.518;7.318;2023-04-28T05:37:28;13.93;;;6.27;;
3916;SDS011;1973;50.518;7.318;2023-04-28T05:39:54;8.70;;;6.43;;
3916;SDS011;1973;50.518;7.318;2023-04-28T05:42:21;10.07;;;6.90;;
3916;SDS011;1973;50.518;7.318;2023-04-28T05:44:47;9.73;;;6.50;;
3916;SDS011;1973;50.518;7.318;2023-04-28T05:47:14;9.93;;;6.60;;
3916;SDS011;1973;50.518;7.318;2023-04-28T05:49:40;17.20;;;8.93;;
3916;SDS011;1973;50.518;7.318;2023-04-28T05:52:07;16.63;;;9.97;;
3916;SDS011;1973;50.518;7.318;2023-04-28T05:54:33;7.87;;;6.33;;
3916;SDS011;1973;50.518;7.318;2023-04-28T05:57:00;9.77;;;6.80;;
3916;SDS011;1973;50.518;7.318;2023-04-28T05:59:27;14.00;;;7.00;;
3916;SDS011;1973;50.518;7.318;2023-04-28T06:01:55;8.17;;;5.80;;
3916;SDS011;1973;50.518;7.318;2023-04-28T06:04:22;9.17;;;6.30;;
3916;SDS011;1973;50.518;7.318;2023-04-28T06:06:49;6.50;;;5.77;;
3916;SDS011;1973;50.518;7.318;2023-04-28T06:09:15;7.23;;;6.07;;
3916;SDS011;1973;50.518;7.318;2023-04-28T06:11:42;6.53;;;5.80;;
3916;SDS011;1973;50.518;7.318;2023-04-28T06:14:09;9.87;;;6.17;;
3916;SDS011;1973;50.518;7.318;2023-04-28T06:16:35;8.37;;;6.70;;
3916;SDS011;1973;50.518;7.318;2023-04-28T06:19:02;11.00;;;7.10;;
3916;SDS011;1973;50.518;7.318;2023-04-28T06:21:29;10.87;;;7.13;;
3916;SDS011;1973;50.518;7.318;2023-04-28T06:23:57;10.03;;;7.33;;
3916;SDS011;1973;50.518;7.318;2023-04-28T06:26:23;7.77;;;6.53;;
3916;SDS011;1973;50.518;7.318;2023-04-28T06:28:50;8.40;;;6.87;;
3916;SDS011;1973;50.518;7.318;2023-04-28T06:31:17;9.70;;;6.97;;
3916;SDS011;1973;50.518;7.318;2023-04-28T06:33:43;8.63;;;7.30;;
3916;SDS011;1973;50.518;7.318;2023-04-28T06:36:10;8.47;;;6.80;;
3916;SDS011;1973;50.518;7.318;2023-04-28T06:38:39;8.53;;;7.00;;
3916;SDS011;1973;50.518;7.318;2023-04-28T06:41:08;9.80;;;6.83;;
3916;SDS011;1973;50.518;7.318;2023-04-28T06:43:35;10.10;;;7.53;;
3916;SDS011;1973;50.518;7.318;2023-04-28T06:46:02;9.77;;;7.17;;
3916;SDS011;1973;50.518;7.318;2023-04-28T06:48:29;7.00;;;6.23;;
3916;SDS011;1973;50.518;7.318;2023-04-28T06:50:55;7.60;;;6.17;;
3916;SDS011;1973;50.518;7.318;2023-04-28T06:53:21;7.10;;;6.40;;
3916;SDS011;1973;50.518;7.318;2023-04-28T06:55:48;7.80;;;6.80;;
3916;SDS011;1973;50.518;7.318;2023-04-28T06:58:14;9.77;;;7.00;;
3916;SDS011;1973;50.518;7.318;2023-04-28T07:00:41;11.07;;;8.10;;
3916;SDS011;1973;50.518;7.318;2023-04-28T07:03:07;8.93;;;7.50;;
3916;SDS011;1973;50.518;7.318;2023-04-28T07:05:34;10.20;;;8.23;;
3916;SDS011;1973;50.518;7.318;2023-04-28T07:08:02;9.87;;;7.07;;
3916;SDS011;1973;50.518;7.318;2023-04-28T07:10:28;8.43;;;7.60;;
3916;SDS011;1973;50.518;7.318;2023-04-28T07:12:55;10.03;;;7.57;;
3916;SDS011;1973;50.518;7.318;2023-04-28T07:15:21;9.00;;;8.00;;
3916;SDS011;1973;50.518;7.318;2023-04-28T07:17:49;11.20;;;8.50;;
3916;SDS011;1973;50.518;7.318;2023-04-28T07:20:16;9.50;;;8.10;;
3916;SDS011;1973;50.518;7.318;2023-04-28T07:22:43;9.23;;;7.50;;
3916;SDS011;1973;50.518;7.318;2023-04-28T07:25:09;8.13;;;7.33;;
3916;SDS011;1973;50.518;7.318;2023-04-28T07:27:36;14.07;;;8.20;;
3916;SDS011;1973;50.518;7.318;2023-04-28T07:30:03;12.63;;;8.83;;
3916;SDS011;1973;50.518;7.318;2023-04-28T07:32:49;14.33;;;7.90;;
3916;SDS011;1973;50.518;7.318;2023-04-28T07:35:16;10.47;;;8.60;;
3916;SDS011;1973;50.518;7.318;2023-04-28T07:37:43;8.30;;;7.50;;
3916;SDS011;1973;50.518;7.318;2023-04-28T07:40:09;9.70;;;8.70;;
3916;SDS011;1973;50.518;7.318;2023-04-28T07:42:36;12.43;;;8.93;;
3916;SDS011;1973;50.518;7.318;2023-04-28T07:45:03;10.10;;;8.80;;
3916;SDS011;1973;50.518;7.318;2023-04-28T07:47:30;10.90;;;9.13;;
3916;SDS011;1973;50.518;7.318;2023-04-28T07:49:57;9.80;;;8.20;;
3916;SDS011;1973;50.518;7.318;2023-04-28T07:52:26;10.77;;;9.30;;
3916;SDS011;1973;50.518;7.318;2023-04-28T07:54:52;9.93;;;8.03;;
3916;SDS011;1973;50.518;7.318;2023-04-28T07:57:18;9.40;;;8.37;;
3916;SDS011;1973;50.518;7.318;2023-04-28T07:59:45;9.73;;;8.73;;
3916;SDS011;1973;50.518;7.318;2023-04-28T08:02:11;13.67;;;9.00;;
3916;SDS011;1973;50.518;7.318;2023-04-28T08:04:39;10.93;;;8.47;;
3916;SDS011;1973;50.518;7.318;2023-04-28T08:07:07;10.50;;;8.07;;
3916;SDS011;1973;50.518;7.318;2023-04-28T08:09:34;11.03;;;7.87;;
3916;SDS011;1973;50.518;7.318;2023-04-28T08:12:00;8.63;;;7.83;;
3916;SDS011;1973;50.518;7.318;2023-04-28T08:14:27;9.50;;;8.33;;
3916;SDS011;1973;50.518;7.318;2023-04-28T08:16:53;9.50;;;8.50;;
3916;SDS011;1973;50.518;7.318;2023-04-28T08:19:20;12.03;;;8.53;;
3916;SDS011;1973;50.518;7.318;2023-04-28T08:21:46;9.67;;;8.30;;
3916;SDS011;1973;50.518;7.318;2023-04-28T08:24:13;8.63;;;7.43;;
3916;SDS011;1973;50.518;7.318;2023-04-28T08:26:40;13.80;;;8.60;;
3916;SDS011;1973;50.518;7.318;2023-04-28T08:29:06;10.63;;;8.50;;
3916;SDS011;1973;50.518;7.318;2023-04-28T08:31:33;8.80;;;7.60;;
3916;SDS011;1973;50.518;7.318;2023-04-28T08:33:59;9.57;;;7.50;;
3916;SDS011;1973;50.518;7.318;2023-04-28T08:36:26;14.30;;;8.33;;
3916;SDS011;1973;50.518;7.318;2023-04-28T08:38:57;11.13;;;8.33;;
3916;SDS011;1973;50.518;7.318;2023-04-28T08:41:24;13.37;;;9.07;;
3916;SDS011;1973;50.518;7.318;2023-04-28T08:43:55;9.57;;;8.60;;
3916;SDS011;1973;50.518;7.318;2023-04-28T08:46:21;9.20;;;8.40;;
3916;SDS011;1973;50.518;7.318;2023-04-28T08:48:59;10.50;;;8.70;;
3916;SDS011;1973;50.518;7.318;2023-04-28T08:51:34;11.17;;;9.20;;
3916;SDS011;1973;50.518;7.318;2023-04-28T08:54:09;9.13;;;8.00;;
3916;SDS011;1973;50.518;7.318;2023-04-28T08:56:51;9.03;;;8.20;;
3916;SDS011;1973;50.518;7.318;2023-04-28T08:59:17;9.10;;;8.20;;
3916;SDS011;1973;50.518;7.318;2023-04-28T09:01:46;9.60;;;7.73;;
3916;SDS011;1973;50.518;7.318;2023-04-28T09:04:18;10.00;;;9.10;;
3916;SDS011;1973;50.518;7.318;2023-04-28T09:06:45;11.70;;;9.00;;
3916;SDS011;1973;50.518;7.318;2023-04-28T09:14:25;14.40;;;8.60;;
3916;SDS011;1973;50.518;7.318;2023-04-28T09:16:53;9.17;;;8.37;;
3916;SDS011;1973;50.518;7.318;2023-04-28T09:19:20;10.53;;;8.80;;
3916;SDS011;1973;50.518;7.318;2023-04-28T09:24:51;10.40;;;9.30;;
3916;SDS011;1973;50.518;7.318;2023-04-28T09:27:12;9.40;;;8.60;;
3916;SDS011;1973;50.518;7.318;2023-04-28T09:29:50;12.17;;;9.93;;
3916;SDS011;1973;50.518;7.318;2023-04-28T09:32:18;9.77;;;8.77;;
3916;SDS011;1973;50.518;7.318;2023-04-28T09:34:51;10.73;;;9.47;;
3916;SDS011;1973;50.518;7.318;2023-04-28T09:37:22;10.07;;;8.63;;
3916;SDS011;1973;50.518;7.318;2023-04-28T09:40:02;11.77;;;9.00;;
3916;SDS011;1973;50.518;7.318;2023-04-28T09:42:39;11.50;;;9.90;;
3916;SDS011;1973;50.518;7.318;2023-04-28T09:45:08;9.30;;;8.23;;
3916;SDS011;1973;50.518;7.318;2023-04-28T09:47:37;10.67;;;9.57;;
3916;SDS011;1973;50.518;7.318;2023-04-28T09:50:09;9.93;;;8.77;;
3916;SDS011;1973;50.518;7.318;2023-04-28T09:52:40;11.20;;;10.10;;
3916;SDS011;1973;50.518;7.318;2023-04-28T09:55:08;12.03;;;9.50;;
3916;SDS011;1973;50.518;7.318;2023-04-28T09:57:36;9.90;;;8.90;;
3916;SDS011;1973;50.518;7.318;2023-04-28T10:00:04;10.30;;;9.10;;
3916;SDS011;1973;50.518;7.318;2023-04-28T10:02:33;10.70;;;9.33;;
3916;SDS011;1973;50.518;7.318;2023-04-28T10:05:04;10.17;;;9.17;;
3916;SDS011;1973;50.518;7.318;2023-04-28T10:07:37;9.30;;;8.40;;
3916;SDS011;1973;50.518;7.318;2023-04-28T10:10:05;8.77;;;7.97;;
3916;SDS011;1973;50.518;7.318;2023-04-28T10:12:32;9.40;;;8.10;;
3916;SDS011;1973;50.518;7.318;2023-04-28T10:15:00;11.30;;;7.17;;
3916;SDS011;1973;50.518;7.318;2023-04-28T10:17:27;8.60;;;7.73;;
3916;SDS011;1973;50.518;7.318;2023-04-28T10:19:55;8.60;;;7.80;;
3916;SDS011;1973;50.518;7.318;2023-04-28T10:25:43;10.40;;;7.83;;
3916;SDS011;1973;50.518;7.318;2023-04-28T10:27:52;9.00;;;7.33;;
3916;SDS011;1973;50.518;7.318;2023-04-28T10:30:20;7.73;;;7.03;;
3916;SDS011;1973;50.518;7.318;2023-04-28T10:35:45;9.10;;;6.50;;
3916;SDS011;1973;50.518;7.318;2023-04-28T10:38:13;8.47;;;7.60;;
3916;SDS011;1973;50.518;7.318;2023-04-28T10:40:45;8.40;;;6.70;;
3916;SDS011;1973;50.518;7.318;2023-04-28T10:45:58;7.17;;;6.57;;
3916;SDS011;1973;50.518;7.318;2023-04-28T10:56:18;5.20;;;4.20;;
3916;SDS011;1973;50.518;7.318;2023-04-28T10:58:45;6.13;;;4.63;;
3916;SDS011;1973;50.518;7.318;2023-04-28T11:06:39;6.57;;;3.93;;
3916;SDS011;1973;50.518;7.318;2023-04-28T11:11:41;4.33;;;3.93;;
3916;SDS011;1973;50.518;7.318;2023-04-28T11:16:57;3.90;;;3.60;;
3916;SDS011;1973;50.518;7.318;2023-04-28T11:19:29;4.00;;;3.67;;
3916;SDS011;1973;50.518;7.318;2023-04-28T11:22:04;4.23;;;3.77;;
3916;SDS011;1973;50.518;7.318;2023-04-28T11:24:40;5.77;;;4.23;;
3916;SDS011;1973;50.518;7.318;2023-04-28T11:27:23;3.80;;;3.50;;
3916;SDS011;1973;50.518;7.318;2023-04-28T11:29:51;4.70;;;3.90;;
3916;SDS011;1973;50.518;7.318;2023-04-28T11:32:19;5.70;;;3.73;;
3916;SDS011;1973;50.518;7.318;2023-04-28T11:35:00;3.77;;;3.43;;
3916;SDS011;1973;50.518;7.318;2023-04-28T11:37:27;7.13;;;3.87;;
3916;SDS011;1973;50.518;7.318;2023-04-28T11:39:53;4.93;;;3.10;;
3916;SDS011;1973;50.518;7.318;2023-04-28T11:42:20;3.30;;;2.43;;
3916;SDS011;1973;50.518;7.318;2023-04-28T11:44:49;3.50;;;3.20;;
3916;SDS011;1973;50.518;7.318;2023-04-28T11:47:29;6.10;;;3.20;;
3916;SDS011;1973;50.518;7.318;2023-04-28T11:49:57;3.83;;;3.23;;
3916;SDS011;1973;50.518;7.318;2023-04-28T11:52:24;2.90;;;2.70;;
3916;SDS011;1973;50.518;7.318;2023-04-28T11:54:53;3.60;;;3.30;;
3916;SDS011;1973;50.518;7.318;2023-04-28T11:57:25;3.93;;;2.87;;
3916;SDS011;1973;50.518;7.318;2023-04-28T11:59:52;3.53;;;3.00;;
3916;SDS011;1973;50.518;7.318;2023-04-28T12:02:25;3.30;;;3.00;;
3916;SDS011;1973;50.518;7.318;2023-04-28T12:04:55;3.57;;;3.27;;
3916;SDS011;1973;50.518;7.318;2023-04-28T12:07:38;4.80;;;3.47;;
3916;SDS011;1973;50.518;7.318;2023-04-28T12:10:13;3.40;;;2.67;;
3916;SDS011;1973;50.518;7.318;2023-04-28T12:12:42;6.47;;;4.00;;
3916;SDS011;1973;50.518;7.318;2023-04-28T12:15:18;4.57;;;3.90;;
3916;SDS011;1973;50.518;7.318;2023-04-28T12:17:47;6.53;;;4.20;;
3916;SDS011;1973;50.518;7.318;2023-04-28T12:20:32;4.00;;;3.60;;
3916;SDS011;1973;50.518;7.318;2023-04-28T12:23:00;5.40;;;4.13;;
3916;SDS011;1973;50.518;7.318;2023-04-28T12:25:27;6.60;;;4.50;;
3916;SDS011;1973;50.518;7.318;2023-04-28T12:28:12;10.90;;;5.60;;
3916;SDS011;1973;50.518;7.318;2023-04-28T12:30:39;7.07;;;5.30;;
3916;SDS011;1973;50.518;7.318;2023-04-28T12:33:24;7.50;;;4.63;;
3916;SDS011;1973;50.518;7.318;2023-04-28T12:35:52;5.73;;;4.17;;
3916;SDS011;1973;50.518;7.318;2023-04-28T12:38:20;5.00;;;4.60;;
3916;SDS011;1973;50.518;7.318;2023-04-28T12:40:47;4.63;;;3.83;;
3916;SDS011;1973;50.518;7.318;2023-04-28T12:43:14;6.07;;;3.17;;
3916;SDS011;1973;50.518;7.318;2023-04-28T12:45:40;4.13;;;3.10;;
3916;SDS011;1973;50.518;7.318;2023-04-28T12:48:07;3.43;;;2.93;;
3916;SDS011;1973;50.518;7.318;2023-04-28T12:50:33;5.23;;;3.03;;
3916;SDS011;1973;50.518;7.318;2023-04-28T12:53:00;4.13;;;3.07;;
3916;SDS011;1973;50.518;7.318;2023-04-28T12:55:27;2.73;;;2.20;;
3916;SDS011;1973;50.518;7.318;2023-04-28T12:57:54;2.53;;;2.33;;
3916;SDS011;1973;50.518;7.318;2023-04-28T13:00:21;3.67;;;3.13;;
3916;SDS011;1973;50.518;7.318;2023-04-28T13:02:48;2.13;;;1.90;;
3916;SDS011;1973;50.518;7.318;2023-04-28T13:05:16;2.47;;;2.23;;
3916;SDS011;1973;50.518;7.318;2023-04-28T13:07:44;2.77;;;2.40;;
3916;SDS011;1973;50.518;7.318;2023-04-28T13:10:11;3.57;;;2.40;;
3916;SDS011;1973;50.518;7.318;2023-04-28T13:12:38;2.50;;;2.30;;
3916;SDS011;1973;50.518;7.318;2023-04-28T13:15:06;2.57;;;1.83;;
3916;SDS011;1973;50.518;7.318;2023-04-28T13:17:33;2.87;;;2.30;;
3916;SDS011;1973;50.518;7.318;2023-04-28T13:20:00;3.60;;;2.17;;
3916;SDS011;1973;50.518;7.318;2023-04-28T13:22:29;2.80;;;2.10;;
3916;SDS011;1973;50.518;7.318;2023-04-28T13:24:55;2.37;;;1.60;;
3916;SDS011;1973;50.518;7.318;2023-04-28T13:27:22;2.07;;;1.83;;
3916;SDS011;1973;50.518;7.318;2023-04-28T13:29:49;2.47;;;1.80;;
3916;SDS011;1973;50.518;7.318;2023-04-28T13:32:16;2.17;;;1.93;;
3916;SDS011;1973;50.518;7.318;2023-04-28T13:34:42;2.80;;;1.50;;
3916;SDS011;1973;50.518;7.318;2023-04-28T13:37:10;2.07;;;1.40;;
3916;SDS011;1973;50.518;7.318;2023-04-28T13:39:37;2.57;;;1.30;;
3916;SDS011;1973;50.518;7.318;2023-04-28T13:42:03;1.90;;;1.60;;
3916;SDS011;1973;50.518;7.318;2023-04-28T13:44:32;2.43;;;1.90;;
3916;SDS011;1973;50.518;7.318;2023-04-28T13:46:59;1.60;;;1.50;;
3916;SDS011;1973;50.518;7.318;2023-04-28T13:49:26;2.17;;;1.30;;
3916;SDS011;1973;50.518;7.318;2023-04-28T13:51:52;2.00;;;1.37;;
3916;SDS011;1973;50.518;7.318;2023-04-28T13:54:18;2.60;;;1.47;;
3916;SDS011;1973;50.518;7.318;2023-04-28T13:56:46;2.03;;;1.63;;
3916;SDS011;1973;50.518;7.318;2023-04-28T13:59:12;1.60;;;1.30;;
3916;SDS011;1973;50.518;7.318;2023-04-28T14:01:39;1.40;;;1.27;;
3916;SDS011;1973;50.518;7.318;2023-04-28T14:04:06;1.40;;;1.30;;
3916;SDS011;1973;50.518;7.318;2023-04-28T14:06:32;3.40;;;1.40;;
3916;SDS011;1973;50.518;7.318;2023-04-28T14:09:00;2.67;;;1.90;;
3916;SDS011;1973;50.518;7.318;2023-04-28T14:11:27;5.43;;;2.13;;
3916;SDS011;1973;50.518;7.318;2023-04-28T14:13:54;2.60;;;2.40;;
3916;SDS011;1973;50.518;7.318;2023-04-28T14:16:20;2.70;;;2.30;;
3916;SDS011;1973;50.518;7.318;2023-04-28T14:18:47;3.20;;;1.87;;
3916;SDS011;1973;50.518;7.318;2023-04-28T14:21:13;2.33;;;2.10;;
3916;SDS011;1973;50.518;7.318;2023-04-28T14:23:40;2.73;;;2.27;;
3916;SDS011;1973;50.518;7.318;2023-04-28T14:26:08;3.67;;;2.40;;
3916;SDS011;1973;50.518;7.318;2023-04-28T14:28:35;3.43;;;2.00;;
3916;SDS011;1973;50.518;7.318;2023-04-28T14:31:02;2.50;;;2.30;;
3916;SDS011;1973;50.518;7.318;2023-04-28T14:33:32;3.50;;;2.37;;
3916;SDS011;1973;50.518;7.318;2023-04-28T14:35:59;4.03;;;2.40;;
3916;SDS011;1973;50.518;7.318;2023-04-28T14:38:27;3.10;;;2.40;;
3916;SDS011;1973;50.518;7.318;2023-04-28T14:40:55;3.00;;;2.10;;
3916;SDS011;1973;50.518;7.318;2023-04-28T14:43:22;1.93;;;1.73;;
3916;SDS011;1973;50.518;7.318;2023-04-28T14:45:48;1.87;;;1.53;;
3916;SDS011;1973;50.518;7.318;2023-04-28T14:48:15;2.97;;;2.00;;
3916;SDS011;1973;50.518;7.318;2023-04-28T14:50:42;5.70;;;2.30;;
3916;SDS011;1973;50.518;7.318;2023-04-28T14:53:09;3.47;;;3.00;;
3916;SDS011;1973;50.518;7.318;2023-04-28T14:55:36;3.50;;;2.63;;
3916;SDS011;1973;50.518;7.318;2023-04-28T14:58:02;2.83;;;2.23;;
3916;SDS011;1973;50.518;7.318;2023-04-28T15:00:29;5.30;;;2.70;;
3916;SDS011;1973;50.518;7.318;2023-04-28T15:02:56;7.40;;;2.90;;
3916;SDS011;1973;50.518;7.318;2023-04-28T15:05:23;4.30;;;3.10;;
3916;SDS011;1973;50.518;7.318;2023-04-28T15:07:49;6.03;;;2.37;;
3916;SDS011;1973;50.518;7.318;2023-04-28T15:10:16;2.53;;;2.33;;
3916;SDS011;1973;50.518;7.318;2023-04-28T15:12:42;5.57;;;2.33;;
3916;SDS011;1973;50.518;7.318;2023-04-28T15:15:09;4.43;;;2.30;;
3916;SDS011;1973;50.518;7.318;2023-04-28T15:17:36;3.63;;;2.60;;
3916;SDS011;1973;50.518;7.318;2023-04-28T15:20:03;4.17;;;2.47;;
3916;SDS011;1973;50.518;7.318;2023-04-28T15:22:30;3.10;;;2.33;;
3916;SDS011;1973;50.518;7.318;2023-04-28T15:24:56;2.80;;;2.10;;
3916;SDS011;1973;50.518;7.318;2023-04-28T15:27:23;5.63;;;2.03;;
3916;SDS011;1973;50.518;7.318;2023-04-28T15:29:50;2.90;;;1.93;;
3916;SDS011;1973;50.518;7.318;2023-04-28T15:32:16;3.80;;;2.30;;
3916;SDS011;1973;50.518;7.318;2023-04-28T15:34:43;4.53;;;2.30;;
3916;SDS011;1973;50.518;7.318;2023-04-28T15:40:11;4.00;;;1.93;;
3916;SDS011;1973;50.518;7.318;2023-04-28T15:42:40;4.67;;;2.30;;
3916;SDS011;1973;50.518;7.318;2023-04-28T15:45:08;3.10;;;2.00;;
3916;SDS011;1973;50.518;7.318;2023-04-28T15:47:35;3.93;;;1.67;;
3916;SDS011;1973;50.518;7.318;2023-04-28T15:50:04;2.70;;;2.00;;
3916;SDS011;1973;50.518;7.318;2023-04-28T15:52:31;3.50;;;2.10;;
3916;SDS011;1973;50.518;7.318;2023-04-28T15:54:58;2.70;;;1.90;;